sensor_id;sensor_type;location;lat;lon;timestamp;P1;durP1;ratioP1;P2;durP2;ratioP2
68763;SDS011;55754;52.038;5.566;2022-10-16T00:00:43;9.18;;;2.65;;
68763;SDS011;55754;52.038;5.566;2022-10-16T00:03:11;7.97;;;2.20;;
68763;SDS011;55754;52.038;5.566;2022-10-16T00:05:40;10.63;;;2.55;;
68763;SDS011;55754;52.038;5.566;2022-10-16T00:08:07;8.27;;;2.38;;
68763;SDS011;55754;52.038;5.566;2022-10-16T00:10:34;9.07;;;2.60;;
68763;SDS011;55754;52.038;5.566;2022-10-16T00:12:59;7.78;;;2.33;;
68763;SDS011;55754;52.038;5.566;2022-10-16T00:15:25;10.40;;;2.50;;
68763;SDS011;55754;52.038;5.566;2022-10-16T00:17:50;7.25;;;2.30;;
68763;SDS011;55754;52.038;5.566;2022-10-16T00:20:16;5.20;;;2.17;;
68763;SDS011;55754;52.038;5.566;2022-10-16T00:22:42;7.07;;;2.47;;
68763;SDS011;55754;52.038;5.566;2022-10-16T00:25:07;6.53;;;2.30;;
68763;SDS011;55754;52.038;5.566;2022-10-16T00:27:33;7.83;;;2.23;;
68763;SDS011;55754;52.038;5.566;2022-10-16T00:29:59;7.30;;;2.20;;
68763;SDS011;55754;52.038;5.566;2022-10-16T00:32:24;7.80;;;2.40;;
68763;SDS011;55754;52.038;5.566;2022-10-16T00:34:50;5.95;;;2.30;;
68763;SDS011;55754;52.038;5.566;2022-10-16T00:37:16;9.47;;;2.50;;
68763;SDS011;55754;52.038;5.566;2022-10-16T00:39:41;7.28;;;2.17;;
68763;SDS011;55754;52.038;5.566;2022-10-16T00:42:09;7.63;;;2.20;;
68763;SDS011;55754;52.038;5.566;2022-10-16T00:44:41;7.72;;;2.45;;
68763;SDS011;55754;52.038;5.566;2022-10-16T00:47:22;6.88;;;2.45;;
68763;SDS011;55754;52.038;5.566;2022-10-16T00:49:48;8.10;;;2.33;;
68763;SDS011;55754;52.038;5.566;2022-10-16T00:52:16;7.05;;;2.55;;
68763;SDS011;55754;52.038;5.566;2022-10-16T00:54:43;7.47;;;2.53;;
68763;SDS011;55754;52.038;5.566;2022-10-16T00:57:10;12.35;;;2.30;;
68763;SDS011;55754;52.038;5.566;2022-10-16T00:59:37;6.33;;;2.17;;
68763;SDS011;55754;52.038;5.566;2022-10-16T01:02:05;8.73;;;2.30;;
68763;SDS011;55754;52.038;5.566;2022-10-16T01:04:40;8.85;;;2.40;;
68763;SDS011;55754;52.038;5.566;2022-10-16T01:07:20;7.65;;;2.40;;
68763;SDS011;55754;52.038;5.566;2022-10-16T01:10:04;6.45;;;2.05;;
68763;SDS011;55754;52.038;5.566;2022-10-16T01:12:50;8.23;;;2.30;;
68763;SDS011;55754;52.038;5.566;2022-10-16T01:15:40;8.50;;;2.50;;
68763;SDS011;55754;52.038;5.566;2022-10-16T01:21:35;8.80;;;2.45;;
68763;SDS011;55754;52.038;5.566;2022-10-16T01:24:19;9.27;;;2.53;;
68763;SDS011;55754;52.038;5.566;2022-10-16T01:27:12;5.60;;;2.40;;
68763;SDS011;55754;52.038;5.566;2022-10-16T01:29:44;6.57;;;2.38;;
68763;SDS011;55754;52.038;5.566;2022-10-16T01:35:02;5.93;;;2.40;;
68763;SDS011;55754;52.038;5.566;2022-10-16T01:40:06;7.65;;;2.40;;
68763;SDS011;55754;52.038;5.566;2022-10-16T01:42:37;6.60;;;2.42;;
68763;SDS011;55754;52.038;5.566;2022-10-16T01:45:15;13.38;;;2.80;;
68763;SDS011;55754;52.038;5.566;2022-10-16T01:47:43;5.90;;;2.33;;
68763;SDS011;55754;52.038;5.566;2022-10-16T01:50:10;8.25;;;2.55;;
68763;SDS011;55754;52.038;5.566;2022-10-16T01:52:38;9.88;;;3.00;;
68763;SDS011;55754;52.038;5.566;2022-10-16T01:55:09;7.93;;;2.65;;
68763;SDS011;55754;52.038;5.566;2022-10-16T01:57:37;6.80;;;2.63;;
68763;SDS011;55754;52.038;5.566;2022-10-16T02:00:10;5.03;;;2.30;;
68763;SDS011;55754;52.038;5.566;2022-10-16T02:02:38;5.80;;;2.25;;
68763;SDS011;55754;52.038;5.566;2022-10-16T02:05:16;6.82;;;2.40;;
68763;SDS011;55754;52.038;5.566;2022-10-16T02:07:47;8.80;;;2.50;;
68763;SDS011;55754;52.038;5.566;2022-10-16T02:10:13;7.20;;;2.63;;
68763;SDS011;55754;52.038;5.566;2022-10-16T02:12:40;8.10;;;2.53;;
68763;SDS011;55754;52.038;5.566;2022-10-16T02:15:10;8.50;;;2.63;;
68763;SDS011;55754;52.038;5.566;2022-10-16T02:17:36;8.43;;;2.80;;
68763;SDS011;55754;52.038;5.566;2022-10-16T02:20:02;8.05;;;2.45;;
68763;SDS011;55754;52.038;5.566;2022-10-16T02:22:32;8.53;;;2.40;;
68763;SDS011;55754;52.038;5.566;2022-10-16T02:25:11;8.98;;;2.40;;
68763;SDS011;55754;52.038;5.566;2022-10-16T02:32:52;6.07;;;2.55;;
68763;SDS011;55754;52.038;5.566;2022-10-16T02:35:19;7.23;;;2.50;;
68763;SDS011;55754;52.038;5.566;2022-10-16T02:37:47;7.57;;;2.45;;
68763;SDS011;55754;52.038;5.566;2022-10-16T02:40:14;9.20;;;2.80;;
68763;SDS011;55754;52.038;5.566;2022-10-16T02:42:41;7.50;;;2.40;;
68763;SDS011;55754;52.038;5.566;2022-10-16T02:45:08;5.68;;;2.70;;
68763;SDS011;55754;52.038;5.566;2022-10-16T02:47:35;6.77;;;2.33;;
68763;SDS011;55754;52.038;5.566;2022-10-16T02:50:03;5.93;;;2.47;;
68763;SDS011;55754;52.038;5.566;2022-10-16T02:52:29;6.90;;;2.30;;
68763;SDS011;55754;52.038;5.566;2022-10-16T02:54:55;7.00;;;2.40;;
68763;SDS011;55754;52.038;5.566;2022-10-16T02:57:20;5.57;;;2.50;;
68763;SDS011;55754;52.038;5.566;2022-10-16T02:59:46;6.23;;;2.70;;
68763;SDS011;55754;52.038;5.566;2022-10-16T03:02:11;7.10;;;2.40;;
68763;SDS011;55754;52.038;5.566;2022-10-16T03:04:37;8.40;;;2.72;;
68763;SDS011;55754;52.038;5.566;2022-10-16T03:07:05;7.40;;;2.60;;
68763;SDS011;55754;52.038;5.566;2022-10-16T03:09:31;8.13;;;3.00;;
68763;SDS011;55754;52.038;5.566;2022-10-16T03:11:57;11.87;;;2.93;;
68763;SDS011;55754;52.038;5.566;2022-10-16T03:14:22;6.53;;;2.40;;
68763;SDS011;55754;52.038;5.566;2022-10-16T03:16:48;6.23;;;2.23;;
68763;SDS011;55754;52.038;5.566;2022-10-16T03:19:17;5.82;;;2.47;;
68763;SDS011;55754;52.038;5.566;2022-10-16T03:21:43;8.10;;;2.55;;
68763;SDS011;55754;52.038;5.566;2022-10-16T03:24:09;5.40;;;2.40;;
68763;SDS011;55754;52.038;5.566;2022-10-16T03:26:34;6.93;;;2.40;;
68763;SDS011;55754;52.038;5.566;2022-10-16T03:29:01;5.80;;;2.30;;
68763;SDS011;55754;52.038;5.566;2022-10-16T03:31:28;5.87;;;2.40;;
68763;SDS011;55754;52.038;5.566;2022-10-16T03:33:54;6.45;;;2.40;;
68763;SDS011;55754;52.038;5.566;2022-10-16T03:36:19;8.93;;;2.50;;
68763;SDS011;55754;52.038;5.566;2022-10-16T03:38:45;6.38;;;2.25;;
68763;SDS011;55754;52.038;5.566;2022-10-16T03:41:10;8.73;;;2.50;;
68763;SDS011;55754;52.038;5.566;2022-10-16T03:43:36;5.53;;;2.50;;
68763;SDS011;55754;52.038;5.566;2022-10-16T03:46:01;7.78;;;2.42;;
68763;SDS011;55754;52.038;5.566;2022-10-16T03:48:27;7.73;;;2.40;;
68763;SDS011;55754;52.038;5.566;2022-10-16T03:50:52;9.60;;;2.50;;
68763;SDS011;55754;52.038;5.566;2022-10-16T03:53:18;9.20;;;2.20;;
68763;SDS011;55754;52.038;5.566;2022-10-16T03:55:44;6.20;;;2.20;;
68763;SDS011;55754;52.038;5.566;2022-10-16T03:58:10;6.63;;;2.40;;
68763;SDS011;55754;52.038;5.566;2022-10-16T04:00:39;9.52;;;2.35;;
68763;SDS011;55754;52.038;5.566;2022-10-16T04:03:08;5.85;;;2.20;;
68763;SDS011;55754;52.038;5.566;2022-10-16T04:05:34;8.07;;;2.20;;
68763;SDS011;55754;52.038;5.566;2022-10-16T04:08:00;6.57;;;2.20;;
68763;SDS011;55754;52.038;5.566;2022-10-16T04:10:26;6.83;;;2.33;;
68763;SDS011;55754;52.038;5.566;2022-10-16T04:12:51;4.80;;;1.98;;
68763;SDS011;55754;52.038;5.566;2022-10-16T04:15:19;7.22;;;2.38;;
68763;SDS011;55754;52.038;5.566;2022-10-16T04:17:45;5.27;;;2.23;;
68763;SDS011;55754;52.038;5.566;2022-10-16T04:20:10;5.07;;;2.07;;
68763;SDS011;55754;52.038;5.566;2022-10-16T04:22:36;8.90;;;2.00;;
68763;SDS011;55754;52.038;5.566;2022-10-16T04:25:01;5.93;;;2.40;;
68763;SDS011;55754;52.038;5.566;2022-10-16T04:27:27;6.72;;;2.03;;
68763;SDS011;55754;52.038;5.566;2022-10-16T04:29:53;5.93;;;2.10;;
68763;SDS011;55754;52.038;5.566;2022-10-16T04:32:18;4.78;;;1.90;;
68763;SDS011;55754;52.038;5.566;2022-10-16T04:34:44;4.70;;;1.90;;
68763;SDS011;55754;52.038;5.566;2022-10-16T04:37:09;6.67;;;2.17;;
68763;SDS011;55754;52.038;5.566;2022-10-16T04:39:35;6.03;;;2.00;;
68763;SDS011;55754;52.038;5.566;2022-10-16T04:42:01;7.47;;;2.03;;
68763;SDS011;55754;52.038;5.566;2022-10-16T04:44:27;8.32;;;2.10;;
68763;SDS011;55754;52.038;5.566;2022-10-16T04:46:52;7.60;;;2.27;;
68763;SDS011;55754;52.038;5.566;2022-10-16T04:49:20;5.53;;;1.90;;
68763;SDS011;55754;52.038;5.566;2022-10-16T04:51:46;5.53;;;2.10;;
68763;SDS011;55754;52.038;5.566;2022-10-16T04:54:12;6.25;;;1.95;;
68763;SDS011;55754;52.038;5.566;2022-10-16T04:56:37;7.47;;;2.17;;
68763;SDS011;55754;52.038;5.566;2022-10-16T04:59:12;4.35;;;2.10;;
68763;SDS011;55754;52.038;5.566;2022-10-16T05:01:39;5.88;;;2.22;;
68763;SDS011;55754;52.038;5.566;2022-10-16T05:04:04;5.00;;;2.00;;
68763;SDS011;55754;52.038;5.566;2022-10-16T05:06:30;6.45;;;2.10;;
68763;SDS011;55754;52.038;5.566;2022-10-16T05:08:55;11.60;;;2.07;;
68763;SDS011;55754;52.038;5.566;2022-10-16T05:11:21;4.33;;;1.83;;
68763;SDS011;55754;52.038;5.566;2022-10-16T05:13:47;8.18;;;2.08;;
68763;SDS011;55754;52.038;5.566;2022-10-16T05:16:13;4.87;;;2.00;;
68763;SDS011;55754;52.038;5.566;2022-10-16T05:18:38;7.63;;;1.98;;
68763;SDS011;55754;52.038;5.566;2022-10-16T05:21:04;8.17;;;1.90;;
68763;SDS011;55754;52.038;5.566;2022-10-16T05:23:30;7.28;;;2.20;;
68763;SDS011;55754;52.038;5.566;2022-10-16T05:25:56;5.60;;;2.20;;
68763;SDS011;55754;52.038;5.566;2022-10-16T05:28:24;7.40;;;2.10;;
68763;SDS011;55754;52.038;5.566;2022-10-16T05:30:53;6.35;;;2.55;;
68763;SDS011;55754;52.038;5.566;2022-10-16T05:33:20;5.53;;;2.42;;
68763;SDS011;55754;52.038;5.566;2022-10-16T05:35:46;7.10;;;2.30;;
68763;SDS011;55754;52.038;5.566;2022-10-16T05:38:12;7.13;;;2.40;;
68763;SDS011;55754;52.038;5.566;2022-10-16T05:40:37;8.85;;;2.20;;
68763;SDS011;55754;52.038;5.566;2022-10-16T05:43:03;6.97;;;2.10;;
68763;SDS011;55754;52.038;5.566;2022-10-16T05:45:29;6.73;;;2.30;;
68763;SDS011;55754;52.038;5.566;2022-10-16T05:47:54;10.80;;;2.58;;
68763;SDS011;55754;52.038;5.566;2022-10-16T05:50:23;7.73;;;2.00;;
68763;SDS011;55754;52.038;5.566;2022-10-16T05:52:48;5.28;;;2.17;;
68763;SDS011;55754;52.038;5.566;2022-10-16T05:55:14;5.30;;;2.13;;
68763;SDS011;55754;52.038;5.566;2022-10-16T05:57:42;6.25;;;2.40;;
68763;SDS011;55754;52.038;5.566;2022-10-16T06:00:08;8.47;;;2.40;;
68763;SDS011;55754;52.038;5.566;2022-10-16T06:02:34;5.32;;;2.13;;
68763;SDS011;55754;52.038;5.566;2022-10-16T06:05:00;6.40;;;2.20;;
68763;SDS011;55754;52.038;5.566;2022-10-16T06:07:25;7.82;;;1.90;;
68763;SDS011;55754;52.038;5.566;2022-10-16T06:09:51;6.73;;;2.07;;
68763;SDS011;55754;52.038;5.566;2022-10-16T06:12:18;6.88;;;1.80;;
68763;SDS011;55754;52.038;5.566;2022-10-16T06:14:44;5.13;;;2.22;;
68763;SDS011;55754;52.038;5.566;2022-10-16T06:17:13;6.20;;;2.10;;
68763;SDS011;55754;52.038;5.566;2022-10-16T06:19:39;6.05;;;2.08;;
68763;SDS011;55754;52.038;5.566;2022-10-16T06:22:05;6.07;;;2.10;;
68763;SDS011;55754;52.038;5.566;2022-10-16T06:24:31;6.50;;;2.00;;
68763;SDS011;55754;52.038;5.566;2022-10-16T06:26:56;8.45;;;2.38;;
68763;SDS011;55754;52.038;5.566;2022-10-16T06:29:22;6.03;;;2.07;;
68763;SDS011;55754;52.038;5.566;2022-10-16T06:31:47;6.37;;;1.97;;
68763;SDS011;55754;52.038;5.566;2022-10-16T06:34:13;11.32;;;2.03;;
68763;SDS011;55754;52.038;5.566;2022-10-16T06:36:38;6.13;;;2.23;;
68763;SDS011;55754;52.038;5.566;2022-10-16T06:39:04;5.50;;;2.20;;
68763;SDS011;55754;52.038;5.566;2022-10-16T06:41:32;5.18;;;2.20;;
68763;SDS011;55754;52.038;5.566;2022-10-16T06:43:58;6.28;;;2.25;;
68763;SDS011;55754;52.038;5.566;2022-10-16T06:46:24;8.37;;;2.60;;
68763;SDS011;55754;52.038;5.566;2022-10-16T06:48:50;6.18;;;2.90;;
68763;SDS011;55754;52.038;5.566;2022-10-16T06:51:17;6.65;;;2.92;;
68763;SDS011;55754;52.038;5.566;2022-10-16T06:53:48;9.00;;;2.88;;
68763;SDS011;55754;52.038;5.566;2022-10-16T06:56:16;11.20;;;2.90;;
68763;SDS011;55754;52.038;5.566;2022-10-16T06:58:44;7.07;;;2.63;;
68763;SDS011;55754;52.038;5.566;2022-10-16T07:01:11;6.13;;;2.58;;
68763;SDS011;55754;52.038;5.566;2022-10-16T07:03:40;6.40;;;2.10;;
68763;SDS011;55754;52.038;5.566;2022-10-16T07:06:07;8.25;;;2.45;;
68763;SDS011;55754;52.038;5.566;2022-10-16T07:08:35;6.93;;;2.43;;
68763;SDS011;55754;52.038;5.566;2022-10-16T07:11:06;5.32;;;2.20;;
68763;SDS011;55754;52.038;5.566;2022-10-16T07:13:33;7.43;;;1.92;;
68763;SDS011;55754;52.038;5.566;2022-10-16T07:18:32;5.78;;;2.30;;
68763;SDS011;55754;52.038;5.566;2022-10-16T07:23:37;6.32;;;1.98;;
68763;SDS011;55754;52.038;5.566;2022-10-16T07:26:03;6.88;;;2.00;;
68763;SDS011;55754;52.038;5.566;2022-10-16T07:28:29;7.85;;;2.30;;
68763;SDS011;55754;52.038;5.566;2022-10-16T07:30:59;9.13;;;2.00;;
68763;SDS011;55754;52.038;5.566;2022-10-16T07:33:26;8.73;;;2.00;;
68763;SDS011;55754;52.038;5.566;2022-10-16T07:35:52;4.50;;;1.90;;
68763;SDS011;55754;52.038;5.566;2022-10-16T07:38:18;8.60;;;2.10;;
68763;SDS011;55754;52.038;5.566;2022-10-16T07:40:44;5.45;;;2.20;;
68763;SDS011;55754;52.038;5.566;2022-10-16T07:43:10;6.13;;;2.30;;
68763;SDS011;55754;52.038;5.566;2022-10-16T07:45:35;6.87;;;2.70;;
68763;SDS011;55754;52.038;5.566;2022-10-16T07:48:01;7.22;;;2.10;;
68763;SDS011;55754;52.038;5.566;2022-10-16T07:50:27;5.80;;;2.00;;
68763;SDS011;55754;52.038;5.566;2022-10-16T07:52:53;6.75;;;2.10;;
68763;SDS011;55754;52.038;5.566;2022-10-16T07:55:18;5.37;;;2.10;;
68763;SDS011;55754;52.038;5.566;2022-10-16T07:57:44;6.73;;;2.13;;
68763;SDS011;55754;52.038;5.566;2022-10-16T08:00:09;8.35;;;2.15;;
68763;SDS011;55754;52.038;5.566;2022-10-16T08:02:41;7.53;;;2.00;;
68763;SDS011;55754;52.038;5.566;2022-10-16T08:05:07;10.52;;;2.38;;
68763;SDS011;55754;52.038;5.566;2022-10-16T08:07:33;8.20;;;2.30;;
68763;SDS011;55754;52.038;5.566;2022-10-16T08:09:58;5.47;;;2.13;;
68763;SDS011;55754;52.038;5.566;2022-10-16T08:12:25;6.45;;;2.33;;
68763;SDS011;55754;52.038;5.566;2022-10-16T08:14:51;5.82;;;2.20;;
68763;SDS011;55754;52.038;5.566;2022-10-16T08:17:16;7.33;;;2.13;;
68763;SDS011;55754;52.038;5.566;2022-10-16T08:19:48;4.70;;;2.03;;
68763;SDS011;55754;52.038;5.566;2022-10-16T08:22:13;6.60;;;2.20;;
68763;SDS011;55754;52.038;5.566;2022-10-16T08:24:39;8.00;;;2.00;;
68763;SDS011;55754;52.038;5.566;2022-10-16T08:27:05;6.10;;;2.00;;
68763;SDS011;55754;52.038;5.566;2022-10-16T08:29:32;8.95;;;2.40;;
68763;SDS011;55754;52.038;5.566;2022-10-16T08:31:58;7.57;;;2.37;;
68763;SDS011;55754;52.038;5.566;2022-10-16T08:34:23;6.00;;;2.13;;
68763;SDS011;55754;52.038;5.566;2022-10-16T08:36:49;6.80;;;1.97;;
68763;SDS011;55754;52.038;5.566;2022-10-16T08:39:15;6.60;;;2.20;;
68763;SDS011;55754;52.038;5.566;2022-10-16T08:47:30;7.82;;;2.13;;
68763;SDS011;55754;52.038;5.566;2022-10-16T08:50:10;11.55;;;2.10;;
68763;SDS011;55754;52.038;5.566;2022-10-16T08:52:39;5.10;;;1.90;;
68763;SDS011;55754;52.038;5.566;2022-10-16T08:55:10;8.70;;;1.90;;
68763;SDS011;55754;52.038;5.566;2022-10-16T08:58:00;5.20;;;1.90;;
68763;SDS011;55754;52.038;5.566;2022-10-16T09:00:26;8.05;;;1.95;;
68763;SDS011;55754;52.038;5.566;2022-10-16T09:02:56;7.97;;;2.00;;
68763;SDS011;55754;52.038;5.566;2022-10-16T09:05:43;7.32;;;2.00;;
68763;SDS011;55754;52.038;5.566;2022-10-16T09:08:28;8.48;;;1.90;;
68763;SDS011;55754;52.038;5.566;2022-10-16T09:11:09;8.10;;;2.10;;
68763;SDS011;55754;52.038;5.566;2022-10-16T09:13:48;9.57;;;2.15;;
68763;SDS011;55754;52.038;5.566;2022-10-16T09:16:34;9.07;;;1.80;;
68763;SDS011;55754;52.038;5.566;2022-10-16T09:21:44;9.48;;;2.10;;
68763;SDS011;55754;52.038;5.566;2022-10-16T09:24:21;8.57;;;1.90;;
68763;SDS011;55754;52.038;5.566;2022-10-16T09:26:50;8.40;;;1.67;;
68763;SDS011;55754;52.038;5.566;2022-10-16T09:29:17;8.47;;;1.80;;
68763;SDS011;55754;52.038;5.566;2022-10-16T09:31:49;9.38;;;1.95;;
68763;SDS011;55754;52.038;5.566;2022-10-16T09:34:28;8.60;;;2.00;;
68763;SDS011;55754;52.038;5.566;2022-10-16T09:36:57;10.02;;;1.98;;
68763;SDS011;55754;52.038;5.566;2022-10-16T09:39:25;7.37;;;1.90;;
68763;SDS011;55754;52.038;5.566;2022-10-16T09:41:51;11.20;;;1.85;;
68763;SDS011;55754;52.038;5.566;2022-10-16T09:47:00;7.63;;;1.80;;
68763;SDS011;55754;52.038;5.566;2022-10-16T09:49:30;10.85;;;1.65;;
68763;SDS011;55754;52.038;5.566;2022-10-16T09:52:05;8.60;;;1.85;;
68763;SDS011;55754;52.038;5.566;2022-10-16T09:54:37;11.23;;;2.58;;
68763;SDS011;55754;52.038;5.566;2022-10-16T09:57:24;8.27;;;1.48;;
68763;SDS011;55754;52.038;5.566;2022-10-16T10:02:17;11.05;;;1.80;;
68763;SDS011;55754;52.038;5.566;2022-10-16T10:04:55;11.00;;;1.70;;
68763;SDS011;55754;52.038;5.566;2022-10-16T10:07:23;8.07;;;1.57;;
68763;SDS011;55754;52.038;5.566;2022-10-16T10:10:04;9.07;;;1.60;;
68763;SDS011;55754;52.038;5.566;2022-10-16T10:12:31;14.32;;;1.90;;
68763;SDS011;55754;52.038;5.566;2022-10-16T10:15:12;8.88;;;1.80;;
68763;SDS011;55754;52.038;5.566;2022-10-16T10:17:45;13.43;;;2.10;;
68763;SDS011;55754;52.038;5.566;2022-10-16T10:20:25;10.70;;;1.97;;
68763;SDS011;55754;52.038;5.566;2022-10-16T10:22:53;8.48;;;1.58;;
68763;SDS011;55754;52.038;5.566;2022-10-16T10:31:21;10.35;;;1.90;;
68763;SDS011;55754;52.038;5.566;2022-10-16T10:36:39;12.05;;;2.05;;
68763;SDS011;55754;52.038;5.566;2022-10-16T10:39:12;9.05;;;1.70;;
68763;SDS011;55754;52.038;5.566;2022-10-16T10:47:53;8.47;;;1.60;;
68763;SDS011;55754;52.038;5.566;2022-10-16T10:50:31;13.82;;;2.05;;
68763;SDS011;55754;52.038;5.566;2022-10-16T10:53:24;9.27;;;1.88;;
68763;SDS011;55754;52.038;5.566;2022-10-16T10:56:14;8.95;;;1.70;;
68763;SDS011;55754;52.038;5.566;2022-10-16T10:59:14;6.45;;;1.63;;
68763;SDS011;55754;52.038;5.566;2022-10-16T11:01:56;10.77;;;1.87;;
68763;SDS011;55754;52.038;5.566;2022-10-16T11:07:17;10.20;;;2.20;;
68763;SDS011;55754;52.038;5.566;2022-10-16T11:09:53;11.00;;;1.75;;
68763;SDS011;55754;52.038;5.566;2022-10-16T11:12:31;10.07;;;1.70;;
68763;SDS011;55754;52.038;5.566;2022-10-16T11:15:05;10.90;;;1.70;;
68763;SDS011;55754;52.038;5.566;2022-10-16T11:17:52;9.13;;;1.70;;
68763;SDS011;55754;52.038;5.566;2022-10-16T11:20:28;10.57;;;2.05;;
68763;SDS011;55754;52.038;5.566;2022-10-16T11:25:45;10.85;;;1.70;;
68763;SDS011;55754;52.038;5.566;2022-10-16T11:28:14;7.80;;;1.53;;
68763;SDS011;55754;52.038;5.566;2022-10-16T11:30:52;9.10;;;1.70;;
68763;SDS011;55754;52.038;5.566;2022-10-16T11:33:29;9.70;;;1.42;;
68763;SDS011;55754;52.038;5.566;2022-10-16T11:36:16;11.20;;;1.70;;
68763;SDS011;55754;52.038;5.566;2022-10-16T11:46:52;8.38;;;1.60;;
68763;SDS011;55754;52.038;5.566;2022-10-16T11:49:34;8.65;;;1.15;;
68763;SDS011;55754;52.038;5.566;2022-10-16T11:57:27;8.68;;;1.50;;
68763;SDS011;55754;52.038;5.566;2022-10-16T12:00:00;10.07;;;1.40;;
68763;SDS011;55754;52.038;5.566;2022-10-16T12:02:37;8.52;;;1.45;;
68763;SDS011;55754;52.038;5.566;2022-10-16T12:08:15;10.00;;;1.47;;
68763;SDS011;55754;52.038;5.566;2022-10-16T12:10:42;8.55;;;1.50;;
68763;SDS011;55754;52.038;5.566;2022-10-16T12:18:39;11.45;;;1.88;;
68763;SDS011;55754;52.038;5.566;2022-10-16T12:21:06;8.60;;;1.40;;
68763;SDS011;55754;52.038;5.566;2022-10-16T12:23:36;9.95;;;1.33;;
68763;SDS011;55754;52.038;5.566;2022-10-16T12:26:11;10.60;;;1.40;;
68763;SDS011;55754;52.038;5.566;2022-10-16T12:28:37;10.67;;;1.47;;
68763;SDS011;55754;52.038;5.566;2022-10-16T12:31:07;9.33;;;1.47;;
68763;SDS011;55754;52.038;5.566;2022-10-16T12:33:39;9.88;;;1.40;;
68763;SDS011;55754;52.038;5.566;2022-10-16T12:36:10;15.32;;;1.50;;
68763;SDS011;55754;52.038;5.566;2022-10-16T12:38:55;12.10;;;1.73;;
68763;SDS011;55754;52.038;5.566;2022-10-16T12:41:30;8.07;;;1.30;;
68763;SDS011;55754;52.038;5.566;2022-10-16T12:43:57;9.82;;;1.42;;
68763;SDS011;55754;52.038;5.566;2022-10-16T12:49:19;8.98;;;1.35;;
68763;SDS011;55754;52.038;5.566;2022-10-16T12:52:02;10.63;;;1.50;;
68763;SDS011;55754;52.038;5.566;2022-10-16T12:54:34;11.75;;;1.40;;
68763;SDS011;55754;52.038;5.566;2022-10-16T13:23:59;9.38;;;1.50;;
68763;SDS011;55754;52.038;5.566;2022-10-16T13:26:57;12.18;;;1.58;;
68763;SDS011;55754;52.038;5.566;2022-10-16T13:29:40;9.73;;;1.40;;
68763;SDS011;55754;52.038;5.566;2022-10-16T13:32:07;11.55;;;1.35;;
68763;SDS011;55754;52.038;5.566;2022-10-16T13:34:47;10.13;;;1.38;;
68763;SDS011;55754;52.038;5.566;2022-10-16T13:37:24;9.95;;;1.48;;
68763;SDS011;55754;52.038;5.566;2022-10-16T13:39:50;11.90;;;1.50;;
68763;SDS011;55754;52.038;5.566;2022-10-16T13:42:25;14.53;;;1.60;;
68763;SDS011;55754;52.038;5.566;2022-10-16T13:44:53;10.43;;;1.63;;
68763;SDS011;55754;52.038;5.566;2022-10-16T13:47:21;10.68;;;1.48;;
68763;SDS011;55754;52.038;5.566;2022-10-16T13:50:00;12.10;;;1.50;;
68763;SDS011;55754;52.038;5.566;2022-10-16T13:52:31;9.47;;;1.50;;
68763;SDS011;55754;52.038;5.566;2022-10-16T13:54:57;11.02;;;1.50;;
68763;SDS011;55754;52.038;5.566;2022-10-16T13:57:23;12.18;;;1.70;;
68763;SDS011;55754;52.038;5.566;2022-10-16T13:59:50;9.97;;;1.60;;
68763;SDS011;55754;52.038;5.566;2022-10-16T14:02:25;11.57;;;1.65;;
68763;SDS011;55754;52.038;5.566;2022-10-16T14:04:51;10.50;;;1.38;;
68763;SDS011;55754;52.038;5.566;2022-10-16T14:07:25;8.38;;;1.52;;
68763;SDS011;55754;52.038;5.566;2022-10-16T14:09:53;11.93;;;1.80;;
68763;SDS011;55754;52.038;5.566;2022-10-16T14:12:19;6.33;;;1.30;;
68763;SDS011;55754;52.038;5.566;2022-10-16T14:14:47;12.90;;;1.73;;
68763;SDS011;55754;52.038;5.566;2022-10-16T14:19:54;9.75;;;1.85;;
68763;SDS011;55754;52.038;5.566;2022-10-16T14:25:25;11.60;;;1.70;;
68763;SDS011;55754;52.038;5.566;2022-10-16T14:28:00;10.30;;;1.70;;
68763;SDS011;55754;52.038;5.566;2022-10-16T14:30:55;11.32;;;1.50;;
68763;SDS011;55754;52.038;5.566;2022-10-16T14:35:56;12.07;;;1.33;;
68763;SDS011;55754;52.038;5.566;2022-10-16T14:38:30;14.07;;;1.65;;
68763;SDS011;55754;52.038;5.566;2022-10-16T14:40:57;10.52;;;1.70;;
68763;SDS011;55754;52.038;5.566;2022-10-16T14:43:30;9.27;;;1.52;;
68763;SDS011;55754;52.038;5.566;2022-10-16T14:46:01;11.30;;;1.80;;
68763;SDS011;55754;52.038;5.566;2022-10-16T14:48:40;8.85;;;1.73;;
68763;SDS011;55754;52.038;5.566;2022-10-16T14:51:08;13.35;;;2.05;;
68763;SDS011;55754;52.038;5.566;2022-10-16T14:53:41;11.30;;;1.60;;
68763;SDS011;55754;52.038;5.566;2022-10-16T14:56:17;14.23;;;1.80;;
68763;SDS011;55754;52.038;5.566;2022-10-16T14:58:44;10.13;;;1.92;;
68763;SDS011;55754;52.038;5.566;2022-10-16T15:01:10;12.65;;;2.97;;
68763;SDS011;55754;52.038;5.566;2022-10-16T15:03:36;10.93;;;2.40;;
68763;SDS011;55754;52.038;5.566;2022-10-16T15:06:02;8.50;;;1.90;;
68763;SDS011;55754;52.038;5.566;2022-10-16T15:08:28;8.80;;;1.50;;
68763;SDS011;55754;52.038;5.566;2022-10-16T15:10:54;15.50;;;1.90;;
68763;SDS011;55754;52.038;5.566;2022-10-16T15:13:19;10.15;;;1.60;;
68763;SDS011;55754;52.038;5.566;2022-10-16T15:15:46;11.40;;;1.73;;
68763;SDS011;55754;52.038;5.566;2022-10-16T15:18:14;9.80;;;1.70;;
68763;SDS011;55754;52.038;5.566;2022-10-16T15:20:44;13.15;;;2.67;;
68763;SDS011;55754;52.038;5.566;2022-10-16T15:23:19;11.60;;;1.70;;
68763;SDS011;55754;52.038;5.566;2022-10-16T15:28:13;11.10;;;1.90;;
68763;SDS011;55754;52.038;5.566;2022-10-16T15:30:39;9.90;;;1.80;;
68763;SDS011;55754;52.038;5.566;2022-10-16T15:33:08;11.13;;;1.90;;
68763;SDS011;55754;52.038;5.566;2022-10-16T15:35:39;13.20;;;1.80;;
68763;SDS011;55754;52.038;5.566;2022-10-16T15:38:05;9.32;;;1.70;;
68763;SDS011;55754;52.038;5.566;2022-10-16T15:40:30;12.97;;;1.90;;
68763;SDS011;55754;52.038;5.566;2022-10-16T15:42:56;9.43;;;1.87;;
68763;SDS011;55754;52.038;5.566;2022-10-16T15:45:21;11.73;;;1.80;;
68763;SDS011;55754;52.038;5.566;2022-10-16T15:47:47;8.67;;;1.93;;
68763;SDS011;55754;52.038;5.566;2022-10-16T15:50:13;10.27;;;2.27;;
68763;SDS011;55754;52.038;5.566;2022-10-16T15:52:40;11.23;;;2.00;;
68763;SDS011;55754;52.038;5.566;2022-10-16T15:55:10;11.52;;;2.08;;
68763;SDS011;55754;52.038;5.566;2022-10-16T15:57:37;8.70;;;1.83;;
68763;SDS011;55754;52.038;5.566;2022-10-16T16:00:05;9.73;;;1.80;;
68763;SDS011;55754;52.038;5.566;2022-10-16T16:02:32;13.70;;;2.22;;
68763;SDS011;55754;52.038;5.566;2022-10-16T16:04:58;10.50;;;2.20;;
68763;SDS011;55754;52.038;5.566;2022-10-16T16:07:23;14.43;;;2.47;;
68763;SDS011;55754;52.038;5.566;2022-10-16T16:09:49;17.00;;;3.67;;
68763;SDS011;55754;52.038;5.566;2022-10-16T16:12:14;13.13;;;3.30;;
68763;SDS011;55754;52.038;5.566;2022-10-16T16:14:40;12.43;;;3.00;;
68763;SDS011;55754;52.038;5.566;2022-10-16T16:17:05;14.77;;;2.30;;
68763;SDS011;55754;52.038;5.566;2022-10-16T16:19:31;12.93;;;2.53;;
68763;SDS011;55754;52.038;5.566;2022-10-16T16:21:58;13.80;;;2.00;;
68763;SDS011;55754;52.038;5.566;2022-10-16T16:24:23;10.73;;;2.30;;
68763;SDS011;55754;52.038;5.566;2022-10-16T16:26:49;11.97;;;2.73;;
68763;SDS011;55754;52.038;5.566;2022-10-16T16:29:15;12.23;;;2.60;;
68763;SDS011;55754;52.038;5.566;2022-10-16T16:31:41;13.55;;;2.40;;
68763;SDS011;55754;52.038;5.566;2022-10-16T16:34:07;13.43;;;2.70;;
68763;SDS011;55754;52.038;5.566;2022-10-16T16:36:33;13.02;;;2.72;;
68763;SDS011;55754;52.038;5.566;2022-10-16T16:38:59;10.63;;;2.57;;
68763;SDS011;55754;52.038;5.566;2022-10-16T16:41:26;10.85;;;2.60;;
68763;SDS011;55754;52.038;5.566;2022-10-16T16:43:54;12.52;;;2.90;;
68763;SDS011;55754;52.038;5.566;2022-10-16T16:46:20;11.50;;;3.03;;
68763;SDS011;55754;52.038;5.566;2022-10-16T16:48:48;12.15;;;3.05;;
68763;SDS011;55754;52.038;5.566;2022-10-16T16:51:23;11.97;;;3.40;;